createdAt,value
2019-01-27T00:00:58.177Z,986.09
2019-01-27T00:01:58.171Z,986.13
2019-01-27T00:02:58.166Z,986.07
2019-01-27T00:03:58.170Z,986.09
2019-01-27T00:04:58.441Z,986.07
2019-01-27T00:05:58.136Z,986.02
2019-01-27T00:06:58.124Z,986.02
2019-01-27T00:07:58.118Z,985.98
2019-01-27T00:08:58.105Z,985.94
2019-01-27T00:09:58.098Z,985.84
2019-01-27T00:10:58.088Z,985.88
2019-01-27T00:11:58.083Z,985.86
2019-01-27T00:12:58.070Z,985.86
2019-01-27T00:13:58.063Z,985.81
2019-01-27T00:14:58.052Z,985.84
2019-01-27T00:15:58.045Z,985.86
2019-01-27T00:16:58.036Z,985.78
2019-01-27T00:17:58.027Z,985.75
2019-01-27T00:18:58.018Z,985.77
2019-01-27T00:19:58.009Z,985.73
2019-01-27T00:20:57.997Z,985.72
2019-01-27T00:21:57.991Z,985.75
2019-01-27T00:22:57.980Z,985.73
2019-01-27T00:23:57.974Z,985.69
2019-01-27T00:24:57.962Z,985.67
2019-01-27T00:25:57.955Z,985.63
2019-01-27T00:26:57.945Z,985.59
2019-01-27T00:27:57.943Z,985.58
2019-01-27T00:28:57.927Z,985.56
2019-01-27T00:29:57.919Z,985.55
2019-01-27T00:30:57.908Z,985.56
2019-01-27T00:31:57.902Z,985.50
2019-01-27T00:32:57.893Z,985.51
2019-01-27T00:33:57.883Z,985.53
2019-01-27T00:34:57.872Z,985.49
2019-01-27T00:35:57.865Z,985.42
2019-01-27T00:36:57.853Z,985.44
2019-01-27T00:37:57.848Z,985.38
2019-01-27T00:38:57.836Z,985.32
2019-01-27T00:39:57.830Z,985.29
2019-01-27T00:40:57.818Z,985.21
2019-01-27T00:41:57.811Z,985.10
2019-01-27T00:42:57.800Z,985.08
2019-01-27T00:43:57.794Z,985.16
2019-01-27T00:44:57.782Z,985.17
2019-01-27T00:45:57.773Z,985.13
2019-01-27T00:46:57.767Z,985.08
2019-01-27T00:47:57.756Z,985.08
2019-01-27T00:48:57.751Z,985.12
2019-01-27T00:49:57.739Z,985.08
2019-01-27T00:50:57.731Z,985.12
2019-01-27T00:51:57.720Z,985.11
2019-01-27T00:52:57.714Z,985.11
2019-01-27T00:53:57.704Z,985.13
2019-01-27T00:54:57.697Z,985.06
2019-01-27T00:55:57.686Z,985.03
2019-01-27T00:56:57.679Z,985.00
2019-01-27T00:57:57.667Z,984.98
2019-01-27T00:58:57.661Z,984.97
2019-01-27T00:59:57.650Z,984.89
2019-01-27T01:00:57.643Z,984.99
2019-01-27T01:01:57.633Z,984.90
2019-01-27T01:02:57.626Z,984.90
2019-01-27T01:03:57.615Z,984.84
2019-01-27T01:04:57.610Z,984.87
2019-01-27T01:05:57.597Z,984.80
2019-01-27T01:06:57.591Z,984.78
2019-01-27T01:07:57.581Z,984.72
2019-01-27T01:08:57.573Z,984.75
2019-01-27T01:09:57.562Z,984.72
2019-01-27T01:10:57.555Z,984.71
2019-01-27T01:11:57.546Z,984.70
2019-01-27T01:12:57.540Z,984.62
2019-01-27T01:13:57.526Z,984.59
2019-01-27T01:14:57.522Z,984.61
2019-01-27T01:15:57.508Z,984.61
2019-01-27T01:16:57.510Z,984.60
2019-01-27T01:17:57.490Z,984.58
2019-01-27T01:18:57.483Z,984.54
2019-01-27T01:19:57.481Z,984.53
2019-01-27T01:20:57.469Z,984.46
2019-01-27T01:21:57.454Z,984.45
2019-01-27T01:22:57.447Z,984.45
2019-01-27T01:23:57.436Z,984.44
2019-01-27T01:24:57.428Z,984.43
2019-01-27T01:25:57.417Z,984.44
2019-01-27T01:26:57.411Z,984.42
2019-01-27T01:27:57.400Z,984.43
2019-01-27T01:28:57.395Z,984.43
2019-01-27T01:29:57.381Z,984.45
2019-01-27T01:30:57.375Z,984.42
2019-01-27T01:31:57.365Z,984.43
2019-01-27T01:32:57.355Z,984.41
2019-01-27T01:33:57.344Z,984.41
2019-01-27T01:34:57.338Z,984.41
2019-01-27T01:35:57.337Z,984.38
2019-01-27T01:36:57.319Z,984.35
2019-01-27T01:37:57.308Z,984.36
2019-01-27T01:38:57.300Z,984.29
2019-01-27T01:39:57.292Z,984.28
2019-01-27T01:40:57.281Z,984.28
2019-01-27T01:41:57.278Z,984.25
2019-01-27T01:42:57.265Z,984.25
2019-01-27T01:43:57.254Z,984.22
2019-01-27T01:44:57.248Z,984.24
2019-01-27T01:45:57.236Z,984.19
2019-01-27T01:46:57.226Z,984.20
2019-01-27T01:47:57.214Z,984.15
2019-01-27T01:48:57.207Z,984.13
2019-01-27T01:49:57.200Z,984.10
2019-01-27T01:50:57.189Z,984.04
2019-01-27T01:51:57.176Z,984.04
2019-01-27T01:52:57.171Z,984.02
2019-01-27T01:53:57.159Z,983.95
2019-01-27T01:54:57.150Z,983.91
2019-01-27T01:55:57.140Z,983.95
2019-01-27T01:56:57.131Z,983.87
2019-01-27T01:57:57.128Z,983.86
2019-01-27T01:58:57.112Z,983.82
2019-01-27T01:59:57.100Z,983.76
2019-01-27T02:00:57.094Z,983.74
2019-01-27T02:01:57.082Z,983.74
2019-01-27T02:02:57.075Z,983.79
2019-01-27T02:03:57.063Z,983.80
2019-01-27T02:04:57.055Z,983.75
2019-01-27T02:05:57.044Z,983.76
2019-01-27T02:06:57.037Z,983.70
2019-01-27T02:07:57.025Z,983.72
2019-01-27T02:08:57.017Z,983.69
2019-01-27T02:09:57.006Z,983.63
2019-01-27T02:10:56.999Z,983.60
2019-01-27T02:11:56.988Z,983.63
2019-01-27T02:12:56.979Z,983.56
2019-01-27T02:13:56.968Z,983.58
2019-01-27T02:14:56.961Z,983.55
2019-01-27T02:15:56.951Z,983.48
2019-01-27T02:16:56.942Z,983.49
2019-01-27T02:17:56.931Z,983.46
2019-01-27T02:18:56.924Z,983.44
2019-01-27T02:19:56.913Z,983.43
2019-01-27T02:20:56.905Z,983.36
2019-01-27T02:21:56.893Z,983.37
2019-01-27T02:22:56.887Z,983.37
2019-01-27T02:23:56.875Z,983.37
2019-01-27T02:24:56.867Z,983.29
2019-01-27T02:25:56.856Z,983.34
2019-01-27T02:26:56.849Z,983.26
2019-01-27T02:27:56.839Z,983.22
2019-01-27T02:28:56.830Z,983.21
2019-01-27T02:29:56.818Z,983.19
2019-01-27T02:30:56.811Z,983.11
2019-01-27T02:31:56.801Z,983.09
2019-01-27T02:32:56.792Z,983.06
2019-01-27T02:33:56.781Z,983.03
2019-01-27T02:34:56.774Z,983.03
2019-01-27T02:35:56.764Z,982.97
2019-01-27T02:36:56.757Z,982.98
2019-01-27T02:37:56.744Z,982.97
2019-01-27T02:38:56.738Z,982.88
2019-01-27T02:39:56.727Z,982.87
2019-01-27T02:40:56.718Z,982.87
2019-01-27T02:41:56.708Z,982.85
2019-01-27T02:42:56.700Z,982.83
2019-01-27T02:43:56.689Z,982.75
2019-01-27T02:44:56.681Z,982.77
2019-01-27T02:45:56.684Z,982.72
2019-01-27T02:46:56.663Z,982.61
2019-01-27T02:47:56.653Z,982.64
2019-01-27T02:48:56.643Z,982.66
2019-01-27T02:49:56.633Z,982.63
2019-01-27T02:50:56.627Z,982.55
2019-01-27T02:51:56.614Z,982.55
2019-01-27T02:52:56.606Z,982.56
2019-01-27T02:53:56.595Z,982.55
2019-01-27T02:54:56.598Z,982.56
2019-01-27T02:55:56.579Z,982.60
2019-01-27T02:56:56.569Z,982.53
2019-01-27T02:57:56.559Z,982.45
2019-01-27T02:58:56.551Z,982.42
2019-01-27T02:59:56.540Z,982.38
2019-01-27T03:00:56.531Z,982.33
2019-01-27T03:01:56.521Z,982.36
2019-01-27T03:02:56.513Z,982.36
2019-01-27T03:03:56.504Z,982.30
2019-01-27T03:04:56.497Z,982.28
2019-01-27T03:05:56.483Z,982.23
2019-01-27T03:06:56.479Z,982.23
2019-01-27T03:07:56.465Z,982.17
2019-01-27T03:08:56.458Z,982.19
2019-01-27T03:09:56.452Z,982.17
2019-01-27T03:10:56.445Z,982.21
2019-01-27T03:11:56.443Z,982.23
2019-01-27T03:12:56.420Z,982.22
2019-01-27T03:13:56.409Z,982.16
2019-01-27T03:14:56.402Z,982.19
2019-01-27T03:15:56.392Z,982.12
2019-01-27T03:16:56.388Z,982.01
2019-01-27T03:17:56.388Z,982.07
2019-01-27T03:18:56.371Z,982.06
2019-01-27T03:19:56.354Z,982.09
2019-01-27T03:20:56.348Z,982.07
2019-01-27T03:21:56.335Z,982.10
2019-01-27T03:22:56.328Z,982.02
2019-01-27T03:23:56.320Z,982.06
2019-01-27T03:24:56.309Z,982.02
2019-01-27T03:25:56.299Z,981.98
2019-01-27T03:26:56.294Z,981.93
2019-01-27T03:27:56.282Z,981.88
2019-01-27T03:28:56.276Z,981.89
2019-01-27T03:29:56.261Z,981.90
2019-01-27T03:30:56.263Z,981.84
2019-01-27T03:31:56.330Z,981.82
2019-01-27T03:32:56.240Z,981.82
2019-01-27T03:33:56.225Z,981.80
2019-01-27T03:34:56.219Z,981.85
2019-01-27T03:35:56.206Z,981.75
2019-01-27T03:36:56.198Z,981.80
2019-01-27T03:37:56.188Z,981.78
2019-01-27T03:38:56.181Z,981.73
2019-01-27T03:39:56.170Z,981.69
2019-01-27T03:40:56.165Z,981.72
2019-01-27T03:41:56.150Z,981.67
2019-01-27T03:42:56.144Z,981.69
2019-01-27T03:43:56.134Z,981.63
2019-01-27T03:44:56.124Z,981.67
2019-01-27T03:45:56.115Z,981.60
2019-01-27T03:46:56.106Z,981.63
2019-01-27T03:47:56.099Z,981.61
2019-01-27T03:48:56.086Z,981.53
2019-01-27T03:49:56.076Z,981.51
2019-01-27T03:50:56.069Z,981.50
2019-01-27T03:51:56.057Z,981.50
2019-01-27T03:52:56.051Z,981.50
2019-01-27T03:53:56.042Z,981.53
2019-01-27T03:54:56.031Z,981.50
2019-01-27T03:55:56.020Z,981.52
2019-01-27T03:56:56.012Z,981.52
2019-01-27T03:57:56.004Z,981.50
2019-01-27T03:58:55.997Z,981.51
2019-01-27T03:59:55.983Z,981.44
2019-01-27T04:00:55.976Z,981.46
2019-01-27T04:01:55.963Z,981.45
2019-01-27T04:02:55.958Z,981.45
2019-01-27T04:03:55.948Z,981.39
2019-01-27T04:04:55.939Z,981.40
2019-01-27T04:05:55.927Z,981.37
2019-01-27T04:06:55.921Z,981.31
2019-01-27T04:07:55.909Z,981.31
2019-01-27T04:08:55.901Z,981.31
2019-01-27T04:09:55.894Z,981.28
2019-01-27T04:10:55.883Z,981.37
2019-01-27T04:11:55.873Z,981.30
2019-01-27T04:12:55.922Z,981.25
2019-01-27T04:13:55.853Z,981.23
2019-01-27T04:14:55.849Z,981.19
2019-01-27T04:15:55.836Z,981.19
2019-01-27T04:16:55.828Z,981.19
2019-01-27T04:17:55.817Z,981.16
2019-01-27T04:18:55.810Z,981.12
2019-01-27T04:19:55.800Z,981.11
2019-01-27T04:20:55.794Z,981.14
2019-01-27T04:21:55.782Z,981.08
2019-01-27T04:22:55.774Z,981.01
2019-01-27T04:23:55.768Z,981.02
2019-01-27T04:24:55.755Z,980.97
2019-01-27T04:25:55.745Z,980.94
2019-01-27T04:26:55.738Z,980.93
2019-01-27T04:27:55.728Z,980.86
2019-01-27T04:28:55.722Z,980.82
2019-01-27T04:29:55.709Z,980.82
2019-01-27T04:30:55.702Z,980.82
2019-01-27T04:31:55.694Z,980.79
2019-01-27T04:32:55.684Z,980.81
2019-01-27T04:33:55.672Z,980.81
2019-01-27T04:34:55.669Z,980.76
2019-01-27T04:35:55.654Z,980.77
2019-01-27T04:36:55.646Z,980.77
2019-01-27T04:37:55.638Z,980.72
2019-01-27T04:38:55.629Z,980.72
2019-01-27T04:39:55.618Z,980.69
2019-01-27T04:40:55.610Z,980.65
2019-01-27T04:41:55.600Z,980.63
2019-01-27T04:42:55.594Z,980.60
2019-01-27T04:43:56.542Z,980.55
2019-01-27T04:44:55.575Z,980.47
2019-01-27T04:45:55.562Z,980.52
2019-01-27T04:46:55.556Z,980.50
2019-01-27T04:47:55.553Z,980.46
2019-01-27T04:48:55.548Z,980.44
2019-01-27T04:49:55.527Z,980.41
2019-01-27T04:50:55.519Z,980.41
2019-01-27T04:51:55.509Z,980.45
2019-01-27T04:52:55.500Z,980.44
2019-01-27T04:53:55.497Z,980.41
2019-01-27T04:54:55.502Z,980.41
2019-01-27T04:55:55.472Z,980.41
2019-01-27T04:56:55.464Z,980.37
2019-01-27T04:57:55.452Z,980.35
2019-01-27T04:58:55.450Z,980.35
2019-01-27T04:59:55.435Z,980.32
2019-01-27T05:00:55.429Z,980.32
2019-01-27T05:01:55.418Z,980.34
2019-01-27T05:02:55.408Z,980.33
2019-01-27T05:03:55.403Z,980.31
2019-01-27T05:04:55.389Z,980.30
2019-01-27T05:05:55.382Z,980.33
2019-01-27T05:06:55.376Z,980.31
2019-01-27T05:07:55.364Z,980.29
2019-01-27T05:08:55.352Z,980.29
2019-01-27T05:09:55.346Z,980.31
2019-01-27T05:10:55.337Z,980.27
2019-01-27T05:11:55.336Z,980.26
2019-01-27T05:12:55.317Z,980.27
2019-01-27T05:13:55.310Z,980.24
2019-01-27T05:14:55.298Z,980.22
2019-01-27T05:15:55.293Z,980.21
2019-01-27T05:16:55.280Z,980.24
2019-01-27T05:17:55.274Z,980.21
2019-01-27T05:18:55.262Z,980.18
2019-01-27T05:19:55.255Z,980.14
2019-01-27T05:20:55.244Z,980.10
2019-01-27T05:21:55.238Z,980.11
2019-01-27T05:22:55.531Z,980.07
2019-01-27T05:23:55.224Z,980.03
2019-01-27T05:24:55.210Z,980.01
2019-01-27T05:25:55.200Z,980.01
2019-01-27T05:26:55.191Z,979.99
2019-01-27T05:27:55.183Z,980.01
2019-01-27T05:28:55.172Z,979.95
2019-01-27T05:29:55.165Z,979.93
2019-01-27T05:30:55.159Z,979.94
2019-01-27T05:31:55.148Z,979.93
2019-01-27T05:32:55.147Z,979.93
2019-01-27T05:33:55.128Z,979.86
2019-01-27T05:34:55.117Z,979.85
2019-01-27T05:35:55.114Z,979.80
2019-01-27T05:36:55.099Z,979.80
2019-01-27T05:37:55.092Z,979.73
2019-01-27T05:38:55.083Z,979.81
2019-01-27T05:39:55.073Z,979.81
2019-01-27T05:40:55.061Z,979.79
2019-01-27T05:41:55.055Z,979.78
2019-01-27T05:42:55.043Z,979.79
2019-01-27T05:43:55.042Z,979.75
2019-01-27T05:44:55.024Z,979.73
2019-01-27T05:45:55.019Z,979.63
2019-01-27T05:46:55.006Z,979.61
2019-01-27T05:47:55.000Z,979.63
2019-01-27T05:48:54.988Z,979.60
2019-01-27T05:49:54.981Z,979.58
2019-01-27T05:50:54.971Z,979.60
2019-01-27T05:51:54.963Z,979.55
2019-01-27T05:52:54.951Z,979.55
2019-01-27T05:53:54.948Z,979.56
2019-01-27T05:54:54.935Z,979.53
2019-01-27T05:55:54.931Z,979.55
2019-01-27T05:56:56.677Z,979.52
2019-01-27T05:57:54.910Z,979.53
2019-01-27T05:58:54.898Z,979.49
2019-01-27T05:59:54.890Z,979.53
2019-01-27T06:00:54.879Z,979.47
2019-01-27T06:01:54.872Z,979.40
2019-01-27T06:02:54.861Z,979.45
2019-01-27T06:03:54.855Z,979.42
2019-01-27T06:04:54.852Z,979.44
2019-01-27T06:05:54.835Z,979.39
2019-01-27T06:06:54.826Z,979.39
2019-01-27T06:07:54.817Z,979.38
2019-01-27T06:08:54.807Z,979.37
2019-01-27T06:09:54.803Z,979.39
2019-01-27T06:10:54.792Z,979.39
2019-01-27T06:11:54.797Z,979.35
2019-01-27T06:12:54.769Z,979.35
2019-01-27T06:13:54.764Z,979.34
2019-01-27T06:14:54.752Z,979.31
2019-01-27T06:15:54.745Z,979.32
2019-01-27T06:16:54.733Z,979.34
2019-01-27T06:17:54.726Z,979.29
2019-01-27T06:18:54.716Z,979.28
2019-01-27T06:19:54.709Z,979.26
2019-01-27T06:20:54.697Z,979.25
2019-01-27T06:21:54.690Z,979.28
2019-01-27T06:22:54.679Z,979.28
2019-01-27T06:23:54.681Z,979.25
2019-01-27T06:24:54.671Z,979.27
2019-01-27T06:25:54.674Z,979.23
2019-01-27T06:26:54.644Z,979.23
2019-01-27T06:27:54.642Z,979.19
2019-01-27T06:28:54.626Z,979.22
2019-01-27T06:29:54.619Z,979.24
2019-01-27T06:30:54.610Z,979.16
2019-01-27T06:31:54.614Z,979.16
2019-01-27T06:32:54.589Z,979.16
2019-01-27T06:33:54.583Z,979.11
2019-01-27T06:34:54.572Z,979.09
2019-01-27T06:35:54.565Z,979.06
2019-01-27T06:36:54.554Z,979.11
2019-01-27T06:37:54.547Z,979.11
2019-01-27T06:38:54.537Z,979.09
2019-01-27T06:39:54.530Z,979.10
2019-01-27T06:40:54.518Z,979.08
2019-01-27T06:41:54.512Z,979.05
2019-01-27T06:42:54.501Z,979.01
2019-01-27T06:43:54.494Z,979.04
2019-01-27T06:44:54.483Z,979.00
2019-01-27T06:45:54.480Z,978.97
2019-01-27T06:46:54.466Z,978.97
2019-01-27T06:47:54.459Z,978.95
2019-01-27T06:48:54.447Z,978.95
2019-01-27T06:49:54.444Z,978.93
2019-01-27T06:50:54.431Z,978.91
2019-01-27T06:51:54.724Z,978.99
2019-01-27T06:52:54.412Z,978.88
2019-01-27T06:53:54.406Z,978.89
2019-01-27T06:54:54.396Z,978.88
2019-01-27T06:55:54.389Z,978.86
2019-01-27T06:56:54.377Z,978.88
2019-01-27T06:57:54.371Z,978.89
2019-01-27T06:58:54.360Z,978.86
2019-01-27T06:59:54.354Z,978.92
2019-01-27T07:00:54.352Z,978.86
2019-01-27T07:01:54.336Z,978.85
2019-01-27T07:02:54.326Z,978.84
2019-01-27T07:03:54.319Z,978.79
2019-01-27T07:04:54.307Z,978.84
2019-01-27T07:05:54.301Z,978.80
2019-01-27T07:06:54.291Z,978.78
2019-01-27T07:07:54.285Z,978.75
2019-01-27T07:08:54.273Z,978.78
2019-01-27T07:09:54.267Z,978.78
2019-01-27T07:10:54.256Z,978.72
2019-01-27T07:11:54.250Z,978.77
2019-01-27T07:12:54.238Z,978.76
2019-01-27T07:13:54.232Z,978.74
2019-01-27T07:14:54.222Z,978.74
2019-01-27T07:15:54.216Z,978.73
2019-01-27T07:16:54.203Z,978.76
2019-01-27T07:17:54.197Z,978.73
2019-01-27T07:18:54.186Z,978.73
2019-01-27T07:19:54.180Z,978.69
2019-01-27T07:20:54.171Z,978.68
2019-01-27T07:21:54.462Z,978.71
2019-01-27T07:22:54.151Z,978.69
2019-01-27T07:23:54.145Z,978.64
2019-01-27T07:24:54.133Z,978.73
2019-01-27T07:25:54.128Z,978.66
2019-01-27T07:26:54.117Z,978.69
2019-01-27T07:27:54.111Z,978.67
2019-01-27T07:28:54.099Z,978.67
2019-01-27T07:29:54.093Z,978.65
2019-01-27T07:30:54.082Z,978.68
2019-01-27T07:31:54.076Z,978.65
2019-01-27T07:32:54.064Z,978.66
2019-01-27T07:33:54.058Z,978.71
2019-01-27T07:34:54.050Z,978.66
2019-01-27T07:35:54.043Z,978.66
2019-01-27T07:36:54.030Z,978.63
2019-01-27T07:37:54.025Z,978.66
2019-01-27T07:38:54.013Z,978.67
2019-01-27T07:39:54.013Z,978.67
2019-01-27T07:40:53.995Z,978.62
2019-01-27T07:41:53.989Z,978.63
2019-01-27T07:42:53.979Z,978.59
2019-01-27T07:43:53.973Z,978.54
2019-01-27T07:44:53.962Z,978.55
2019-01-27T07:45:53.958Z,978.55
2019-01-27T07:46:53.945Z,978.58
2019-01-27T07:47:53.939Z,978.52
2019-01-27T07:48:53.927Z,978.52
2019-01-27T07:49:53.920Z,978.52
2019-01-27T07:50:53.910Z,978.48
2019-01-27T07:51:53.904Z,978.49
2019-01-27T07:52:53.899Z,978.51
2019-01-27T07:53:53.887Z,978.54
2019-01-27T07:54:53.877Z,978.56
2019-01-27T07:55:53.872Z,978.53
2019-01-27T07:56:53.858Z,978.45
2019-01-27T07:57:53.852Z,978.50
2019-01-27T07:58:53.843Z,978.46
2019-01-27T07:59:53.835Z,978.50
2019-01-27T08:00:53.825Z,978.45
2019-01-27T08:01:53.820Z,978.42
2019-01-27T08:02:53.807Z,978.36
2019-01-27T08:03:53.802Z,978.33
2019-01-27T08:04:53.790Z,978.35
2019-01-27T08:05:53.784Z,978.37
2019-01-27T08:06:53.784Z,978.33
2019-01-27T08:07:53.808Z,978.38
2019-01-27T08:08:53.756Z,978.34
2019-01-27T08:09:53.750Z,978.35
2019-01-27T08:10:53.740Z,978.34
2019-01-27T08:11:53.734Z,978.28
2019-01-27T08:12:53.725Z,978.32
2019-01-27T08:13:53.726Z,978.30
2019-01-27T08:14:53.707Z,978.33
2019-01-27T08:15:53.699Z,978.30
2019-01-27T08:16:53.688Z,978.30
2019-01-27T08:17:53.686Z,978.29
2019-01-27T08:18:53.676Z,978.29
2019-01-27T08:19:53.666Z,978.27
2019-01-27T08:20:53.656Z,978.31
2019-01-27T08:21:53.649Z,978.28
2019-01-27T08:22:53.639Z,978.30
2019-01-27T08:23:53.633Z,978.29
2019-01-27T08:24:53.620Z,978.23
2019-01-27T08:25:53.615Z,978.24
2019-01-27T08:26:53.604Z,978.24
2019-01-27T08:27:53.598Z,978.30
2019-01-27T08:28:53.587Z,978.29
2019-01-27T08:29:53.581Z,978.26
2019-01-27T08:30:53.570Z,978.27
2019-01-27T08:31:53.565Z,978.23
2019-01-27T08:32:53.555Z,978.29
2019-01-27T08:33:53.547Z,978.18
2019-01-27T08:34:53.538Z,978.20
2019-01-27T08:35:53.532Z,978.25
2019-01-27T08:36:53.521Z,978.22
2019-01-27T08:37:53.514Z,978.23
2019-01-27T08:38:53.507Z,978.21
2019-01-27T08:39:53.500Z,978.24
2019-01-27T08:40:53.487Z,978.17
2019-01-27T08:41:53.481Z,978.24
2019-01-27T08:42:53.472Z,978.18
2019-01-27T08:43:53.466Z,978.23
2019-01-27T08:44:53.454Z,978.22
2019-01-27T08:45:53.451Z,978.15
2019-01-27T08:46:53.447Z,978.17
2019-01-27T08:47:53.433Z,978.15
2019-01-27T08:48:53.422Z,978.21
2019-01-27T08:49:53.415Z,978.15
2019-01-27T08:50:53.405Z,978.15
2019-01-27T08:51:53.399Z,978.11
2019-01-27T08:52:53.388Z,978.09
2019-01-27T08:53:53.383Z,978.09
2019-01-27T08:54:53.373Z,978.10
2019-01-27T08:55:53.366Z,978.03
2019-01-27T08:56:53.356Z,978.10
2019-01-27T08:57:53.350Z,978.05
2019-01-27T08:58:53.340Z,978.11
2019-01-27T08:59:53.335Z,977.99
2019-01-27T09:00:53.323Z,978.02
2019-01-27T09:01:53.318Z,978.07
2019-01-27T09:02:53.310Z,978.05
2019-01-27T09:03:53.303Z,978.01
2019-01-27T09:04:53.291Z,978.05
2019-01-27T09:05:53.287Z,978.04
2019-01-27T09:06:53.276Z,978.10
2019-01-27T09:07:53.270Z,978.07
2019-01-27T09:08:54.714Z,978.05
2019-01-27T09:09:53.404Z,978.06
2019-01-27T09:10:53.244Z,978.09
2019-01-27T09:11:53.239Z,978.09
2019-01-27T09:12:53.227Z,978.07
2019-01-27T09:13:53.222Z,978.10
2019-01-27T09:14:53.213Z,978.07
2019-01-27T09:15:53.207Z,978.06
2019-01-27T09:16:53.195Z,978.08
2019-01-27T09:17:53.188Z,978.03
2019-01-27T09:18:53.182Z,978.01
2019-01-27T09:19:53.173Z,978.05
2019-01-27T09:20:53.166Z,978.09
2019-01-27T09:21:53.156Z,978.00
2019-01-27T09:22:53.151Z,978.03
2019-01-27T09:23:53.141Z,978.00
2019-01-27T09:24:53.134Z,977.99
2019-01-27T09:25:53.129Z,977.99
2019-01-27T09:26:53.119Z,977.99
2019-01-27T09:27:53.210Z,978.01
2019-01-27T09:28:53.104Z,978.02
2019-01-27T09:29:53.094Z,977.96
2019-01-27T09:30:53.088Z,977.99
2019-01-27T09:31:53.080Z,977.97
2019-01-27T09:32:53.081Z,977.96
2019-01-27T09:33:53.062Z,977.91
2019-01-27T09:34:53.057Z,977.92
2019-01-27T09:35:53.047Z,977.92
2019-01-27T09:36:53.041Z,977.89
2019-01-27T09:37:53.030Z,977.93
2019-01-27T09:38:53.026Z,977.90
2019-01-27T09:39:53.015Z,977.93
2019-01-27T09:40:53.009Z,977.94
2019-01-27T09:41:52.999Z,977.95
2019-01-27T09:42:52.996Z,977.94
2019-01-27T09:43:52.983Z,977.86
2019-01-27T09:44:52.976Z,977.91
2019-01-27T09:46:05.269Z,977.88
2019-01-27T09:46:52.961Z,977.90
2019-01-27T09:47:52.950Z,977.89
2019-01-27T09:48:52.944Z,977.92
2019-01-27T09:49:52.934Z,977.92
2019-01-27T09:50:52.929Z,977.88
2019-01-27T09:51:52.918Z,977.86
2019-01-27T09:52:52.913Z,977.87
2019-01-27T09:53:52.900Z,977.86
2019-01-27T09:54:52.904Z,977.92
2019-01-27T09:55:52.885Z,977.92
2019-01-27T09:56:52.877Z,977.88
2019-01-27T09:57:52.867Z,977.87
2019-01-27T09:58:52.862Z,977.87
2019-01-27T09:59:52.850Z,977.81
2019-01-27T10:00:52.848Z,977.82
2019-01-27T10:01:52.847Z,977.81
2019-01-27T10:02:52.826Z,977.89
2019-01-27T10:03:52.816Z,977.86
2019-01-27T10:04:52.809Z,977.77
2019-01-27T10:05:52.798Z,977.79
2019-01-27T10:06:52.792Z,977.84
2019-01-27T10:07:52.781Z,977.89
2019-01-27T10:08:52.925Z,977.84
2019-01-27T10:09:52.765Z,977.86
2019-01-27T10:10:52.757Z,977.90
2019-01-27T10:11:52.747Z,977.93
2019-01-27T10:12:52.740Z,977.90
2019-01-27T10:13:52.732Z,977.86
2019-01-27T10:14:52.723Z,977.90
2019-01-27T10:15:52.712Z,977.90
2019-01-27T10:16:52.706Z,977.89
2019-01-27T10:17:52.695Z,977.91
2019-01-27T10:18:52.688Z,977.91
2019-01-27T10:19:52.678Z,977.85
2019-01-27T10:20:52.671Z,977.87
2019-01-27T10:21:52.660Z,977.87
2019-01-27T10:22:52.654Z,977.84
2019-01-27T10:23:53.634Z,977.84
2019-01-27T10:24:52.639Z,977.90
2019-01-27T10:25:52.628Z,977.87
2019-01-27T10:26:52.622Z,977.87
2019-01-27T10:27:52.613Z,977.85
2019-01-27T10:28:52.604Z,977.81
2019-01-27T10:29:52.592Z,977.78
2019-01-27T10:30:52.590Z,977.84
2019-01-27T10:31:52.577Z,977.80
2019-01-27T10:32:52.568Z,977.78
2019-01-27T10:33:52.557Z,977.79
2019-01-27T10:34:52.551Z,977.76
2019-01-27T10:35:52.542Z,977.76
2019-01-27T10:36:52.534Z,977.76
2019-01-27T10:37:52.523Z,977.72
2019-01-27T10:38:52.517Z,977.78
2019-01-27T10:39:52.506Z,977.75
2019-01-27T10:40:52.500Z,977.76
2019-01-27T10:41:52.489Z,977.74
2019-01-27T10:42:52.481Z,977.72
2019-01-27T10:43:52.471Z,977.70
2019-01-27T10:44:52.463Z,977.66
2019-01-27T10:45:52.452Z,977.67
2019-01-27T10:46:52.446Z,977.67
2019-01-27T10:47:52.435Z,977.65
2019-01-27T10:48:52.429Z,977.68
2019-01-27T10:49:52.420Z,977.60
2019-01-27T10:50:52.411Z,977.60
2019-01-27T10:51:52.401Z,977.60
2019-01-27T10:52:52.394Z,977.58
2019-01-27T10:53:52.383Z,977.55
2019-01-27T10:54:52.376Z,977.58
2019-01-27T10:55:52.368Z,977.56
2019-01-27T10:56:52.359Z,977.53
2019-01-27T10:57:52.352Z,977.59
2019-01-27T10:58:52.341Z,977.57
2019-01-27T10:59:52.337Z,977.54
2019-01-27T11:00:52.369Z,977.52
2019-01-27T11:01:52.315Z,977.51
2019-01-27T11:02:52.308Z,977.59
2019-01-27T11:03:52.296Z,977.52
2019-01-27T11:04:52.288Z,977.48
2019-01-27T11:05:52.279Z,977.43
2019-01-27T11:06:52.271Z,977.47
2019-01-27T11:07:52.316Z,977.44
2019-01-27T11:08:52.253Z,977.37
2019-01-27T11:09:52.243Z,977.45
2019-01-27T11:10:52.237Z,977.35
2019-01-27T11:11:52.226Z,977.42
2019-01-27T11:12:52.218Z,977.34
2019-01-27T11:13:52.208Z,977.41
2019-01-27T11:14:52.203Z,977.44
2019-01-27T11:15:52.211Z,977.34
2019-01-27T11:16:52.184Z,977.35
2019-01-27T11:17:52.173Z,977.38
2019-01-27T11:18:52.168Z,977.29
2019-01-27T11:19:52.157Z,977.35
2019-01-27T11:20:52.149Z,977.31
2019-01-27T11:21:52.138Z,977.28
2019-01-27T11:22:52.132Z,977.35
2019-01-27T11:23:52.123Z,977.20
2019-01-27T11:24:52.115Z,977.31
2019-01-27T11:25:52.104Z,977.29
2019-01-27T11:26:52.099Z,977.27
2019-01-27T11:27:52.088Z,977.32
2019-01-27T11:28:52.079Z,977.29
2019-01-27T11:29:52.070Z,977.28
2019-01-27T11:30:52.062Z,977.29
2019-01-27T11:31:52.053Z,977.23
2019-01-27T11:32:52.048Z,977.22
2019-01-27T11:33:52.034Z,977.24
2019-01-27T11:34:52.027Z,977.22
2019-01-27T11:35:52.017Z,977.20
2019-01-27T11:36:52.020Z,977.20
2019-01-27T11:37:51.998Z,977.06
2019-01-27T11:38:52.093Z,977.17
2019-01-27T11:39:51.981Z,977.18
2019-01-27T11:40:51.974Z,977.13
2019-01-27T11:41:51.965Z,977.16
2019-01-27T11:42:51.963Z,977.16
2019-01-27T11:43:51.965Z,977.17
2019-01-27T11:44:51.939Z,977.14
2019-01-27T11:45:51.928Z,977.16
2019-01-27T11:46:51.923Z,977.10
2019-01-27T11:47:51.911Z,977.10
2019-01-27T11:48:51.904Z,977.10
2019-01-27T11:49:51.893Z,977.10
2019-01-27T11:50:51.887Z,977.08
2019-01-27T11:51:51.876Z,977.06
2019-01-27T11:52:51.870Z,977.08
2019-01-27T11:53:51.858Z,977.05
2019-01-27T11:54:51.851Z,977.02
2019-01-27T11:55:51.840Z,976.99
2019-01-27T11:56:51.833Z,976.96
2019-01-27T11:57:51.823Z,977.01
2019-01-27T11:58:51.817Z,976.95
2019-01-27T11:59:51.806Z,976.94
2019-01-27T12:00:51.799Z,976.97
2019-01-27T12:01:51.788Z,976.94
2019-01-27T12:02:51.781Z,976.93
2019-01-27T12:03:51.771Z,976.96
2019-01-27T12:04:51.764Z,976.96
2019-01-27T12:05:51.753Z,976.89
2019-01-27T12:06:51.747Z,976.93
2019-01-27T12:07:51.736Z,976.92
2019-01-27T12:08:51.733Z,976.95
2019-01-27T12:09:51.719Z,976.91
2019-01-27T12:10:51.713Z,976.92
2019-01-27T12:11:51.701Z,976.93
2019-01-27T12:12:51.694Z,976.90
2019-01-27T12:13:51.683Z,976.90
2019-01-27T12:14:51.680Z,976.86
2019-01-27T12:15:51.666Z,976.83
2019-01-27T12:16:51.661Z,976.91
2019-01-27T12:17:51.649Z,976.87
2019-01-27T12:18:51.642Z,976.89
2019-01-27T12:19:51.632Z,976.86
2019-01-27T12:20:51.624Z,976.81
2019-01-27T12:21:51.613Z,976.83
2019-01-27T12:22:51.608Z,976.80
2019-01-27T12:23:51.597Z,976.81
2019-01-27T12:24:51.590Z,976.77
2019-01-27T12:25:51.581Z,976.76
2019-01-27T12:26:51.572Z,976.77
2019-01-27T12:27:51.562Z,976.67
2019-01-27T12:28:51.555Z,976.73